Time;durP1;ratioP1;P1;durP2;ratioP2;P2;SDS_P1;SDS_P2;PMS_P1;PMS_P2;Temp;Humidity;BMP_temperature;BMP_pressure;BME280_temperature;BME280_humidity;BME280_pressure;Samples;Min_cycle;Max_cycle;Signal;HPM_P1;HPM_P2
2021/12/09 00:01:41;;;;;;;0.90;0.75;;;3.10;99.90;;;;;;5029935;28;20021;-78
2021/12/09 00:04:11;;;;;;;1.35;0.98;;;3.20;99.90;;;;;;5012124;28;20029;-78
2021/12/09 00:06:38;;;;;;;2.10;0.70;;;3.10;99.90;;;;;;5029848;28;20044;-78
2021/12/09 00:09:08;;;;;;;1.48;0.73;;;3.10;99.90;;;;;;5029716;28;20060;-78
2021/12/09 00:11:42;;;;;;;1.27;0.98;;;3.10;99.90;;;;;;5030163;28;20100;-78
2021/12/09 00:14:10;;;;;;;1.08;0.80;;;3.00;99.90;;;;;;5031224;28;20018;-78
2021/12/09 00:16:36;;;;;;;1.10;0.80;;;3.00;99.90;;;;;;5029697;28;20029;-78
2021/12/09 00:19:02;;;;;;;1.48;0.77;;;3.00;99.90;;;;;;5029375;28;20039;-78
2021/12/09 00:21:27;;;;;;;2.28;0.60;;;3.10;99.90;;;;;;5029647;28;20495;-78
2021/12/09 00:23:53;;;;;;;0.63;0.52;;;3.10;99.90;;;;;;5029440;28;20021;-78
2021/12/09 00:26:18;;;;;;;0.77;0.63;;;3.20;99.90;;;;;;5031008;28;20574;-78
2021/12/09 00:28:44;;;;;;;0.65;0.60;;;3.20;99.90;;;;;;5029150;28;20147;-78
2021/12/09 00:31:10;;;;;;;0.60;0.60;;;3.20;99.90;;;;;;5011991;28;20337;-78
2021/12/09 00:33:42;;;;;;;1.17;0.60;;;3.30;99.90;;;;;;5028746;28;20104;-78
2021/12/09 00:36:08;;;;;;;1.05;0.60;;;3.30;99.90;;;;;;5029453;28;20029;-78
2021/12/09 00:38:36;;;;;;;2.65;0.70;;;3.30;99.90;;;;;;5029523;28;20028;-78
2021/12/09 00:41:11;;;;;;;2.40;1.20;;;3.30;99.90;;;;;;5030563;28;20017;-78
2021/12/09 00:43:36;;;;;;;2.63;1.02;;;3.20;99.90;;;;;;5028725;28;20036;-78
2021/12/09 00:46:03;;;;;;;3.35;1.30;;;3.20;99.90;;;;;;5010939;28;20533;-78
2021/12/09 00:48:30;;;;;;;4.28;1.40;;;3.20;99.90;;;;;;5029315;28;20031;-78
2021/12/09 00:50:56;;;;;;;4.03;1.63;;;3.20;99.90;;;;;;5028854;28;20040;-78
2021/12/09 00:53:23;;;;;;;2.45;1.65;;;3.20;99.90;;;;;;5030256;28;20033;-78
2021/12/09 00:55:48;;;;;;;4.35;2.30;;;3.20;99.90;;;;;;5028775;28;20036;-78
2021/12/09 00:58:15;;;;;;;4.55;1.50;;;3.20;99.90;;;;;;5028538;28;20266;-78
2021/12/09 01:00:41;;;;;;;2.25;1.40;;;3.20;99.90;;;;;;5028714;28;20297;-78
2021/12/09 01:03:06;;;;;;;3.03;1.10;;;3.20;99.90;;;;;;5029008;28;20528;-78
2021/12/09 01:05:32;;;;;;;5.38;1.25;;;3.20;99.90;;;;;;5029208;28;20543;-78
2021/12/09 01:07:58;;;;;;;3.10;1.63;;;3.20;99.90;;;;;;5010798;28;20026;-78
2021/12/09 01:10:24;;;;;;;4.28;1.80;;;3.10;99.90;;;;;;5028418;28;20091;-79
2021/12/09 01:12:51;;;;;;;2.83;1.50;;;3.10;99.90;;;;;;5028135;28;20032;-79
2021/12/09 01:15:19;;;;;;;1.17;0.75;;;3.10;99.90;;;;;;5010723;28;20451;-79
2021/12/09 01:17:46;;;;;;;2.03;1.25;;;3.10;99.90;;;;;;5028653;28;20507;-79
2021/12/09 01:20:14;;;;;;;2.05;1.27;;;3.10;99.90;;;;;;5030171;28;20025;-79
2021/12/09 01:22:43;;;;;;;1.95;0.98;;;3.10;99.90;;;;;;5028186;28;20104;-79
2021/12/09 01:25:16;;;;;;;0.88;0.70;;;3.10;99.90;;;;;;5010234;28;20033;-78
2021/12/09 01:27:44;;;;;;;1.58;0.60;;;3.10;99.90;;;;;;5028379;28;20040;-79
2021/12/09 01:30:15;;;;;;;2.50;0.60;;;3.20;99.90;;;;;;5028185;28;20021;-78
2021/12/09 01:32:49;;;;;;;0.65;0.63;;;3.20;99.90;;;;;;5010727;28;20063;-79
2021/12/09 01:35:17;;;;;;;0.70;0.70;;;3.20;99.90;;;;;;5029821;28;20560;-78
2021/12/09 01:37:44;;;;;;;2.08;0.70;;;3.20;99.90;;;;;;5009879;28;20124;-78
2021/12/09 01:40:10;;;;;;;1.10;0.73;;;3.10;99.90;;;;;;5027817;28;20024;-79
2021/12/09 01:42:36;;;;;;;0.82;0.55;;;3.10;99.90;;;;;;5027964;28;20503;-78
2021/12/09 01:45:04;;;;;;;1.80;0.60;;;3.10;99.90;;;;;;5027798;28;20049;-79
2021/12/09 01:47:30;;;;;;;0.70;0.70;;;3.10;99.90;;;;;;5028637;28;20064;-78
2021/12/09 01:49:56;;;;;;;1.02;0.60;;;3.00;99.90;;;;;;5028417;28;20061;-79
2021/12/09 01:52:21;;;;;;;1.17;0.60;;;3.00;99.90;;;;;;5027310;28;20086;-78
2021/12/09 01:54:47;;;;;;;2.90;0.45;;;2.90;99.90;;;;;;5027657;28;20464;-79
2021/12/09 01:57:13;;;;;;;0.68;0.57;;;2.90;99.90;;;;;;5027658;28;20026;-79
2021/12/09 01:59:38;;;;;;;0.60;0.50;;;3.00;99.90;;;;;;5027897;28;20495;-78
2021/12/09 02:02:04;;;;;;;0.50;0.50;;;2.90;99.90;;;;;;5011604;28;20104;-78
2021/12/09 02:04:31;;;;;;;0.57;0.57;;;2.90;99.90;;;;;;5027586;28;20029;-79
2021/12/09 02:06:57;;;;;;;0.70;0.57;;;3.00;99.90;;;;;;5027151;28;20032;-79
2021/12/09 02:09:23;;;;;;;3.03;1.40;;;2.90;99.90;;;;;;5027647;28;20017;-79
2021/12/09 02:11:49;;;;;;;1.08;0.57;;;2.90;99.90;;;;;;5028040;28;20878;-78
2021/12/09 02:14:14;;;;;;;1.20;0.75;;;2.90;99.90;;;;;;5029026;28;20036;-78
2021/12/09 02:16:41;;;;;;;0.73;0.70;;;2.90;99.90;;;;;;5027177;28;20096;-79
2021/12/09 02:19:10;;;;;;;2.55;0.50;;;3.00;99.90;;;;;;5009467;28;20025;-78
2021/12/09 02:21:36;;;;;;;2.30;0.47;;;2.90;99.90;;;;;;5027349;28;20029;-78
2021/12/09 02:24:06;;;;;;;1.70;0.40;;;2.90;99.90;;;;;;5027798;28;20029;-78
2021/12/09 02:26:36;;;;;;;0.50;0.50;;;3.00;99.90;;;;;;5010098;28;20079;-78
2021/12/09 02:29:05;;;;;;;1.20;0.60;;;2.90;99.90;;;;;;5028529;28;20018;-78
2021/12/09 02:31:31;;;;;;;0.77;0.60;;;2.90;99.90;;;;;;5009620;28;20029;-78
2021/12/09 02:33:58;;;;;;;0.85;0.63;;;2.90;99.90;;;;;;5026744;28;20022;-79
2021/12/09 02:36:24;;;;;;;0.40;0.40;;;2.90;99.90;;;;;;5027562;28;20025;-78
2021/12/09 02:38:51;;;;;;;0.40;0.40;;;2.90;99.90;;;;;;5026885;28;20053;-78
2021/12/09 02:41:23;;;;;;;0.52;0.52;;;2.90;99.90;;;;;;5028534;28;20022;-78
2021/12/09 02:43:54;;;;;;;0.85;0.50;;;2.90;99.90;;;;;;5027229;28;20052;-79
2021/12/09 02:46:23;;;;;;;0.50;0.50;;;2.90;99.90;;;;;;5009150;28;20045;-78
2021/12/09 02:48:49;;;;;;;0.63;0.63;;;2.90;99.90;;;;;;5026867;28;20056;-79
2021/12/09 02:51:15;;;;;;;1.73;0.65;;;3.00;99.90;;;;;;5009687;28;20511;-79
2021/12/09 02:53:40;;;;;;;2.58;0.88;;;3.00;99.90;;;;;;5027543;28;20491;-78
2021/12/09 02:56:07;;;;;;;1.73;0.98;;;3.00;99.90;;;;;;5028723;28;20036;-78
2021/12/09 02:58:33;;;;;;;1.05;0.80;;;3.00;99.90;;;;;;5009359;28;20022;-79
2021/12/09 03:01:12;;;;;;;1.33;0.80;;;3.00;99.90;;;;;;5027065;28;20029;-79
2021/12/09 03:03:46;;;;;;;1.50;0.80;;;3.00;99.90;;;;;;5026659;28;20045;-78
2021/12/09 03:06:13;;;;;;;0.85;0.65;;;3.00;99.90;;;;;;5027085;28;20029;-78
2021/12/09 03:08:41;;;;;;;1.70;1.45;;;3.00;99.90;;;;;;5027067;28;20104;-78
2021/12/09 03:11:13;;;;;;;3.00;0.90;;;3.00;99.90;;;;;;5028496;28;20494;-78
2021/12/09 03:13:43;;;;;;;2.05;0.85;;;3.00;99.90;;;;;;5026571;28;20026;-78
2021/12/09 03:16:09;;;;;;;1.77;1.00;;;3.00;99.90;;;;;;5026900;28;20029;-78
2021/12/09 03:18:46;;;;;;;1.63;0.63;;;3.00;99.90;;;;;;5009039;28;20036;-78
2021/12/09 03:21:26;;;;;;;1.20;0.73;;;3.00;99.90;;;;;;5026761;28;20037;-78
2021/12/09 03:23:53;;;;;;;2.00;1.20;;;3.00;99.90;;;;;;5027197;28;20025;-78
2021/12/09 03:26:25;;;;;;;2.40;1.45;;;3.10;99.90;;;;;;5028375;28;20040;-78
2021/12/09 03:28:52;;;;;;;6.63;1.08;;;3.10;99.90;;;;;;5026940;28;20029;-78
2021/12/09 03:31:18;;;;;;;2.80;0.95;;;3.20;99.90;;;;;;5009823;28;20033;-78
2021/12/09 03:33:44;;;;;;;2.83;1.05;;;3.20;99.90;;;;;;5030498;28;20495;-78
2021/12/09 03:36:10;;;;;;;2.67;1.05;;;3.30;99.90;;;;;;5027512;28;20407;-78
2021/12/09 03:38:36;;;;;;;2.05;0.70;;;3.30;99.90;;;;;;5030602;28;20506;-78
2021/12/09 03:41:02;;;;;;;2.25;0.98;;;3.30;99.90;;;;;;5013916;28;20055;-78
2021/12/09 03:43:28;;;;;;;4.28;1.38;;;3.40;99.90;;;;;;5029727;28;20041;-78
2021/12/09 03:45:55;;;;;;;0.57;0.57;;;3.40;99.90;;;;;;5029846;28;20073;-78
2021/12/09 03:48:26;;;;;;;3.40;0.95;;;3.40;99.90;;;;;;5030589;28;20057;-78
2021/12/09 03:50:53;;;;;;;1.38;1.00;;;3.40;99.90;;;;;;5030097;28;20045;-78
2021/12/09 03:53:19;;;;;;;2.00;0.70;;;3.40;99.90;;;;;;5031940;28;20022;-78
2021/12/09 03:55:46;;;;;;;1.60;0.68;;;3.40;99.90;;;;;;5030062;28;20044;-78
2021/12/09 03:58:11;;;;;;;2.72;0.88;;;3.40;99.90;;;;;;5012018;28;20116;-78
2021/12/09 04:00:38;;;;;;;0.60;0.60;;;3.50;99.90;;;;;;5029874;28;20667;-78
2021/12/09 04:03:04;;;;;;;1.30;1.15;;;3.50;99.90;;;;;;5030058;28;20203;-78
2021/12/09 04:05:30;;;;;;;1.50;0.80;;;3.40;99.90;;;;;;5030775;28;20025;-78
2021/12/09 04:07:56;;;;;;;1.30;0.98;;;3.40;99.90;;;;;;5030595;28;20034;-78
2021/12/09 04:10:21;;;;;;;3.00;1.10;;;3.40;99.90;;;;;;5029854;28;20204;-78
2021/12/09 04:12:47;;;;;;;2.05;1.27;;;3.30;99.90;;;;;;5029228;28;20388;-78
2021/12/09 04:15:13;;;;;;;1.27;0.93;;;3.40;99.90;;;;;;5029692;28;20490;-78
2021/12/09 04:17:39;;;;;;;1.00;0.90;;;3.40;99.90;;;;;;5012052;28;20404;-78
2021/12/09 04:20:07;;;;;;;0.88;0.77;;;3.40;99.90;;;;;;5031048;28;20040;-78
2021/12/09 04:22:33;;;;;;;1.10;0.80;;;3.40;99.90;;;;;;5011422;28;20096;-78
2021/12/09 04:24:59;;;;;;;1.00;0.60;;;3.30;99.90;;;;;;5029446;28;20334;-78
2021/12/09 04:27:25;;;;;;;2.88;0.70;;;3.30;99.90;;;;;;5029242;28;20029;-78
2021/12/09 04:29:52;;;;;;;3.03;0.68;;;3.30;99.90;;;;;;5029446;28;20025;-78
2021/12/09 04:32:19;;;;;;;2.20;0.90;;;3.30;99.90;;;;;;5030881;28;20025;-78
2021/12/09 04:34:45;;;;;;;1.30;0.63;;;3.30;99.90;;;;;;5028799;28;20029;-78
2021/12/09 04:37:11;;;;;;;3.72;0.88;;;3.30;99.90;;;;;;5011121;28;20687;-78
2021/12/09 04:39:37;;;;;;;2.67;0.65;;;3.30;99.90;;;;;;5027777;28;20033;-78
2021/12/09 04:42:04;;;;;;;3.58;1.50;;;3.30;99.90;;;;;;5028719;28;20384;-78
2021/12/09 04:44:30;;;;;;;2.92;0.80;;;3.20;99.90;;;;;;5028638;28;20141;-78
2021/12/09 04:46:56;;;;;;;0.82;0.70;;;3.20;99.90;;;;;;5029699;28;20526;-78
2021/12/09 04:49:22;;;;;;;1.48;0.65;;;3.20;99.90;;;;;;5028798;28;20053;-78
2021/12/09 04:51:49;;;;;;;1.73;0.60;;;3.10;99.90;;;;;;5028837;28;20026;-78
2021/12/09 04:54:15;;;;;;;0.98;0.43;;;3.00;99.90;;;;;;5029073;28;20159;-78
2021/12/09 04:56:40;;;;;;;0.40;0.40;;;3.00;99.90;;;;;;5011260;28;20018;-78
2021/12/09 04:59:07;;;;;;;0.88;0.70;;;3.00;99.90;;;;;;5030210;28;20037;-78
2021/12/09 05:01:34;;;;;;;2.20;1.15;;;2.90;99.90;;;;;;5028759;28;20071;-78
2021/12/09 05:04:00;;;;;;;1.92;0.65;;;2.90;99.90;;;;;;5028436;28;20028;-78
2021/12/09 05:06:26;;;;;;;2.05;0.70;;;2.90;99.90;;;;;;5028777;28;20022;-78
2021/12/09 05:08:52;;;;;;;0.73;0.70;;;2.90;99.90;;;;;;5013325;28;20033;-78
2021/12/09 05:11:48;;;;;;;0.50;0.50;;;2.90;99.90;;;;;;5012282;28;20276;-78
2021/12/09 05:14:19;;;;;;;0.55;0.50;;;2.80;99.90;;;;;;5029854;28;20029;-78
2021/12/09 05:16:47;;;;;;;5.72;1.67;;;2.80;99.90;;;;;;5028560;28;20033;-78
2021/12/09 05:19:13;;;;;;;4.70;2.00;;;2.80;99.90;;;;;;5028397;28;20106;-78
2021/12/09 05:21:39;;;;;;;3.70;1.80;;;2.80;99.90;;;;;;5028487;28;20049;-78
2021/12/09 05:24:10;;;;;;;4.20;1.70;;;2.80;99.90;;;;;;5010827;28;20032;-78
2021/12/09 05:26:44;;;;;;;3.03;1.10;;;2.80;99.90;;;;;;5028472;28;20487;-78
2021/12/09 05:29:11;;;;;;;2.22;1.35;;;2.70;99.90;;;;;;5027765;28;20026;-78
2021/12/09 05:34:21;;;;;;;3.58;1.05;;;2.70;99.90;;;;;;5027859;28;20063;-78
2021/12/09 05:36:47;;;;;;;3.05;1.00;;;2.70;99.90;;;;;;5027867;28;20104;-78
2021/12/09 05:39:13;;;;;;;1.45;0.95;;;2.70;99.90;;;;;;5028178;28;20057;-78
2021/12/09 05:41:39;;;;;;;0.98;0.70;;;2.70;99.90;;;;;;5028286;28;20056;-78
2021/12/09 05:44:07;;;;;;;0.88;0.57;;;2.70;99.90;;;;;;5029468;28;20459;-78
2021/12/09 05:46:36;;;;;;;1.55;0.60;;;2.70;99.90;;;;;;5028068;28;20042;-78
2021/12/09 05:49:02;;;;;;;0.80;0.70;;;2.80;99.90;;;;;;5027830;28;20053;-78
2021/12/09 05:51:28;;;;;;;1.45;0.60;;;2.70;99.90;;;;;;5027897;28;20026;-78
2021/12/09 05:53:55;;;;;;;2.03;0.60;;;2.80;99.90;;;;;;5010152;28;20087;-78
2021/12/09 05:56:22;;;;;;;0.80;0.50;;;2.80;99.90;;;;;;5029456;28;20017;-78
2021/12/09 05:58:47;;;;;;;0.40;0.40;;;2.80;99.90;;;;;;5009696;28;20033;-78
2021/12/09 06:01:14;;;;;;;0.50;0.50;;;2.90;99.90;;;;;;5027688;28;20032;-78
2021/12/09 06:03:40;;;;;;;0.50;0.50;;;2.80;99.90;;;;;;5009821;28;20033;-78
2021/12/09 06:06:06;;;;;;;2.88;0.73;;;2.80;99.90;;;;;;5027622;28;20053;-78
2021/12/09 06:08:33;;;;;;;2.10;0.50;;;2.80;99.90;;;;;;5010445;28;20116;-78
2021/12/09 06:11:00;;;;;;;0.65;0.50;;;2.70;99.90;;;;;;5028913;28;20117;-78
2021/12/09 06:13:29;;;;;;;2.28;0.60;;;2.70;99.90;;;;;;5009754;28;20037;-78
2021/12/09 06:15:55;;;;;;;5.13;0.95;;;2.60;99.90;;;;;;5027835;28;20052;-78
2021/12/09 06:18:21;;;;;;;1.35;0.80;;;2.60;99.90;;;;;;5027368;28;20052;-78
2021/12/09 06:20:46;;;;;;;3.30;1.13;;;2.70;99.90;;;;;;5027101;28;20472;-78
2021/12/09 06:23:12;;;;;;;2.22;0.70;;;2.70;99.90;;;;;;5011205;28;20052;-78
2021/12/09 06:25:38;;;;;;;7.18;1.20;;;2.60;99.90;;;;;;5027171;28;20096;-78
2021/12/09 06:28:04;;;;;;;3.72;0.90;;;2.60;99.90;;;;;;5027223;28;20026;-78
2021/12/09 06:30:30;;;;;;;1.13;0.80;;;2.60;99.90;;;;;;5027757;28;20036;-78
2021/12/09 06:32:55;;;;;;;0.95;0.80;;;2.60;99.90;;;;;;5009499;28;20041;-78
2021/12/09 06:35:22;;;;;;;2.45;0.93;;;2.60;99.90;;;;;;5028639;28;20033;-78
2021/12/09 06:37:48;;;;;;;1.10;0.82;;;2.60;99.90;;;;;;5026894;28;20112;-78
2021/12/09 06:40:17;;;;;;;2.88;1.00;;;2.50;99.90;;;;;;5026883;28;20244;-79
2021/12/09 06:42:44;;;;;;;1.67;0.93;;;2.50;99.90;;;;;;5026980;28;20025;-78
2021/12/09 06:45:11;;;;;;;4.45;1.45;;;2.60;99.90;;;;;;5027454;28;20511;-78
2021/12/09 06:47:38;;;;;;;1.65;0.90;;;2.60;99.90;;;;;;5027473;28;20039;-78
2021/12/09 06:50:06;;;;;;;2.40;1.13;;;2.50;99.90;;;;;;5028412;28;20021;-79
2021/12/09 06:52:32;;;;;;;3.03;1.10;;;2.40;99.90;;;;;;5009247;28;20026;-78
2021/12/09 06:54:58;;;;;;;2.33;0.90;;;2.40;99.90;;;;;;5027016;28;20048;-78
2021/12/09 06:57:23;;;;;;;2.05;0.85;;;2.40;99.90;;;;;;5026876;28;20029;-78
2021/12/09 06:59:49;;;;;;;1.98;1.15;;;2.40;99.90;;;;;;5027281;28;20406;-78
2021/12/09 07:02:15;;;;;;;2.70;0.90;;;2.40;99.90;;;;;;5028629;28;20503;-78
2021/12/09 07:04:40;;;;;;;1.98;1.00;;;2.40;99.90;;;;;;5009087;28;20094;-78
2021/12/09 07:07:06;;;;;;;1.25;0.80;;;2.40;99.90;;;;;;5011496;28;20068;-78
2021/12/09 07:09:32;;;;;;;1.40;0.93;;;2.40;99.90;;;;;;5030723;28;20513;-78
2021/12/09 07:11:58;;;;;;;3.17;1.23;;;2.40;99.90;;;;;;5030808;28;20517;-78
2021/12/09 07:14:24;;;;;;;3.90;1.33;;;2.50;99.90;;;;;;5032397;28;20100;-78
2021/12/09 07:16:50;;;;;;;4.28;2.20;;;2.60;99.90;;;;;;5029962;28;20247;-78
2021/12/09 07:19:16;;;;;;;12.95;3.80;;;2.50;99.90;;;;;;5030262;28;20044;-78
2021/12/09 07:21:42;;;;;;;7.95;3.65;;;2.50;99.90;;;;;;5030565;28;20034;-78
2021/12/09 07:24:08;;;;;;;8.05;3.25;;;2.60;99.90;;;;;;5012722;28;20569;-78
2021/12/09 07:26:35;;;;;;;6.03;2.65;;;2.60;99.90;;;;;;5030864;28;20036;-78
2021/12/09 07:29:00;;;;;;;5.20;2.83;;;2.60;99.90;;;;;;5031760;28;20029;-78
2021/12/09 07:31:27;;;;;;;8.35;2.95;;;2.60;99.90;;;;;;5030280;28;20395;-78
2021/12/09 07:33:54;;;;;;;5.47;2.60;;;2.60;99.90;;;;;;5030333;28;20038;-78
2021/12/09 07:36:20;;;;;;;6.45;2.70;;;2.70;99.90;;;;;;5030331;28;20034;-78
2021/12/09 07:38:46;;;;;;;4.18;2.50;;;2.70;99.90;;;;;;5030309;28;20099;-78
2021/12/09 07:41:15;;;;;;;7.80;3.03;;;2.80;99.90;;;;;;5031749;28;20052;-78
2021/12/09 07:43:42;;;;;;;7.70;2.60;;;2.80;99.90;;;;;;5030459;28;20020;-78
2021/12/09 07:46:08;;;;;;;6.15;3.88;;;2.90;99.90;;;;;;5029867;28;20120;-78
2021/12/09 07:48:33;;;;;;;4.32;2.63;;;3.00;99.90;;;;;;5030142;28;20569;-78
2021/12/09 07:50:59;;;;;;;5.07;2.67;;;3.10;99.90;;;;;;5012304;28;20040;-78
2021/12/09 07:53:25;;;;;;;4.90;2.17;;;3.20;99.90;;;;;;5031517;28;20033;-78
2021/12/09 07:55:53;;;;;;;7.45;3.50;;;3.30;99.90;;;;;;5012655;28;20613;-78
2021/12/09 07:58:20;;;;;;;4.68;2.53;;;3.30;99.90;;;;;;5030252;28;20033;-78
2021/12/09 08:00:46;;;;;;;6.88;3.10;;;3.40;99.90;;;;;;5029544;28;20025;-78
2021/12/09 08:03:12;;;;;;;4.68;2.70;;;3.40;99.90;;;;;;5030100;28;20040;-78
2021/12/09 08:05:42;;;;;;;4.22;3.25;;;3.60;99.90;;;;;;5029986;28;20040;-78
2021/12/09 08:08:08;;;;;;;5.97;2.58;;;3.70;99.90;;;;;;5013166;28;20078;-78
2021/12/09 08:10:34;;;;;;;3.00;2.10;;;3.70;99.90;;;;;;5011664;28;20114;-78
2021/12/09 08:13:01;;;;;;;5.50;2.00;;;3.70;99.90;;;;;;5011796;28;20484;-78
2021/12/09 08:15:34;;;;;;;6.70;1.88;;;3.70;99.90;;;;;;5029627;28;20040;-78
2021/12/09 08:18:25;;;;;;;4.47;1.70;;;3.70;99.90;;;;;;5029863;28;20025;-78
2021/12/09 08:20:52;;;;;;;2.97;1.50;;;3.90;99.90;;;;;;5029329;28;20048;-78
2021/12/09 08:23:19;;;;;;;4.18;1.63;;;3.90;99.90;;;;;;5030975;28;20109;-78
2021/12/09 08:25:46;;;;;;;2.65;1.33;;;3.90;99.90;;;;;;5011708;28;20079;-78
2021/12/09 08:28:12;;;;;;;4.53;2.08;;;4.10;99.90;;;;;;5010897;28;20025;-78
2021/12/09 08:30:38;;;;;;;6.70;1.83;;;4.30;99.90;;;;;;5018766;28;20033;-78
2021/12/09 08:33:05;;;;;;;2.70;1.55;;;4.30;99.90;;;;;;5029778;28;20253;-78
2021/12/09 08:35:33;;;;;;;6.10;1.92;;;4.40;99.90;;;;;;5030053;28;20075;-78
2021/12/09 08:37:58;;;;;;;1.90;1.50;;;4.50;99.90;;;;;;5022889;28;20028;-78
2021/12/09 08:40:26;;;;;;;3.45;1.38;;;4.50;99.90;;;;;;5028157;28;20022;-78
2021/12/09 08:42:52;;;;;;;2.22;1.48;;;4.60;99.90;;;;;;5027884;28;20499;-78
2021/12/09 08:45:20;;;;;;;3.75;1.30;;;4.70;99.90;;;;;;5027977;28;20363;-78
2021/12/09 08:47:46;;;;;;;6.75;1.48;;;4.80;99.90;;;;;;5028112;28;20029;-78
2021/12/09 08:50:22;;;;;;;2.67;1.40;;;4.70;99.90;;;;;;5029829;28;20030;-78
2021/12/09 08:52:50;;;;;;;2.78;1.23;;;4.90;99.90;;;;;;5027020;28;20026;-78
2021/12/09 08:55:17;;;;;;;4.30;1.42;;;4.90;99.90;;;;;;5025175;28;20189;-78
2021/12/09 08:57:44;;;;;;;6.40;1.63;;;5.00;99.90;;;;;;5025216;28;20112;-78
2021/12/09 09:00:12;;;;;;;2.50;1.67;;;5.00;99.90;;;;;;5012258;28;20056;-78
2021/12/09 09:02:41;;;;;;;3.45;1.60;;;5.10;99.90;;;;;;5013332;28;20503;-79
2021/12/09 09:05:11;;;;;;;3.45;1.85;;;5.30;99.90;;;;;;5028022;28;20045;-78
2021/12/09 09:07:38;;;;;;;4.07;1.30;;;5.50;99.90;;;;;;5020660;28;20037;-78
2021/12/09 09:10:06;;;;;;;5.32;1.88;;;5.30;99.90;;;;;;5020417;28;20025;-78
2021/12/09 09:12:33;;;;;;;4.55;1.30;;;5.10;99.90;;;;;;5027541;28;20022;-78
2021/12/09 09:15:00;;;;;;;3.75;1.63;;;5.10;99.90;;;;;;5027569;28;20083;-78
2021/12/09 09:17:26;;;;;;;2.40;1.58;;;5.10;99.90;;;;;;5029011;28;20037;-78
2021/12/09 09:19:52;;;;;;;2.30;1.33;;;5.10;99.90;;;;;;5008893;28;20510;-78
2021/12/09 09:22:18;;;;;;;2.90;1.40;;;5.20;99.90;;;;;;5027014;28;20068;-78
2021/12/09 09:24:43;;;;;;;7.00;1.70;;;5.20;99.90;;;;;;5027068;28;20036;-78
2021/12/09 09:27:09;;;;;;;6.43;2.65;;;5.10;99.90;;;;;;5027854;28;20032;-78
2021/12/09 09:29:38;;;;;;;3.58;1.52;;;5.10;99.90;;;;;;5027501;28;20611;-79
2021/12/09 09:32:05;;;;;;;5.20;1.60;;;5.20;99.90;;;;;;5028896;28;20013;-78
2021/12/09 09:34:31;;;;;;;3.50;1.33;;;5.30;99.90;;;;;;5027014;28;20514;-78
2021/12/09 09:36:57;;;;;;;3.75;1.60;;;5.50;99.90;;;;;;5026999;28;20066;-78
2021/12/09 09:39:28;;;;;;;3.25;1.30;;;5.50;99.90;;;;;;5009313;28;20037;-78
2021/12/09 09:41:59;;;;;;;;;;;5.50;99.90;;;;;;5027478;28;20061;-78
2021/12/09 09:44:32;;;;;;;4.13;1.40;;;5.40;99.90;;;;;;5028619;28;20003;-78
2021/12/09 09:47:00;;;;;;;3.45;1.10;;;5.50;99.90;;;;;;5027987;28;20040;-78
2021/12/09 09:49:29;;;;;;;3.30;1.35;;;5.40;99.90;;;;;;5008538;28;20037;-78
2021/12/09 09:51:58;;;;;;;2.00;0.90;;;5.50;99.90;;;;;;5027588;28;20097;-78
2021/12/09 09:54:25;;;;;;;2.72;1.10;;;5.50;99.90;;;;;;5026523;28;20026;-78
2021/12/09 09:56:51;;;;;;;2.50;1.02;;;5.60;99.90;;;;;;5026870;28;20025;-78
2021/12/09 09:59:17;;;;;;;3.72;1.27;;;5.60;99.90;;;;;;5028413;28;20120;-78
2021/12/09 10:01:45;;;;;;;2.33;1.40;;;5.60;99.90;;;;;;5026765;28;20037;-78
2021/12/09 10:04:21;;;;;;;4.18;1.75;;;5.60;99.90;;;;;;5026354;28;20067;-78
2021/12/09 10:06:48;;;;;;;4.70;1.63;;;5.50;99.90;;;;;;5026095;28;20033;-78
2021/12/09 10:09:16;;;;;;;5.60;1.85;;;5.50;99.90;;;;;;5026769;28;20036;-78
2021/12/09 10:11:43;;;;;;;2.85;1.67;;;5.50;99.90;;;;;;5026788;28;20025;-78
2021/12/09 10:14:16;;;;;;;4.53;1.50;;;5.60;99.90;;;;;;5009813;28;20086;-78
2021/12/09 10:16:45;;;;;;;2.72;1.05;;;5.50;99.90;;;;;;5026472;28;20491;-78
2021/12/09 10:19:22;;;;;;;4.35;1.73;;;5.60;99.90;;;;;;5026326;28;20037;-78
2021/12/09 10:21:48;;;;;;;4.60;1.65;;;5.60;99.90;;;;;;5008727;28;20076;-78
2021/12/09 10:24:16;;;;;;;8.43;1.98;;;5.70;99.90;;;;;;5026204;28;20100;-78
2021/12/09 10:26:46;;;;;;;4.65;1.30;;;5.70;99.90;;;;;;5009941;28;20021;-78
2021/12/09 10:29:28;;;;;;;1.88;1.02;;;5.70;99.90;;;;;;5026840;28;20029;-78
2021/12/09 10:32:01;;;;;;;6.47;1.50;;;5.70;99.90;;;;;;5027536;28;20061;-78
2021/12/09 10:34:37;;;;;;;4.35;1.40;;;5.70;99.90;;;;;;5027096;28;20032;-78
2021/12/09 10:37:16;;;;;;;4.20;1.45;;;5.70;99.90;;;;;;5026482;28;20040;-78
2021/12/09 10:39:51;;;;;;;4.28;1.48;;;5.80;99.90;;;;;;5026863;28;20118;-78
2021/12/09 10:42:22;;;;;;;3.55;1.63;;;5.80;99.90;;;;;;5012857;28;20052;-78
2021/12/09 10:45:02;;;;;;;;;;;5.90;99.90;;;;;;5032198;28;20037;-78
2021/12/09 10:47:52;;;;;;;3.78;1.42;;;5.90;99.90;;;;;;5032943;28;19916;-78
2021/12/09 10:56:09;;;;;;;6.25;2.00;;;6.00;99.90;;;;;;5030760;28;20064;-78
2021/12/09 10:58:41;;;;;;;2.38;1.05;;;6.10;99.90;;;;;;5013288;28;20515;-78
2021/12/09 11:01:12;;;;;;;5.82;1.35;;;6.20;99.90;;;;;;5031223;28;20020;-78
2021/12/09 11:03:40;;;;;;;5.05;1.20;;;6.30;99.90;;;;;;5030903;28;20017;-78
2021/12/09 11:06:10;;;;;;;5.80;2.20;;;6.40;99.90;;;;;;5031284;28;20053;-78
2021/12/09 11:08:45;;;;;;;4.93;2.22;;;6.40;99.90;;;;;;5031254;28;20033;-78
2021/12/09 11:11:29;;;;;;;3.22;1.83;;;6.40;99.90;;;;;;5012636;28;20029;-78
2021/12/09 11:14:03;;;;;;;4.35;2.10;;;6.40;99.90;;;;;;5023151;28;20032;-78
2021/12/09 11:16:39;;;;;;;5.00;2.47;;;6.50;99.90;;;;;;5029339;28;20036;-78
2021/12/09 11:19:10;;;;;;;5.30;2.10;;;6.50;99.90;;;;;;5011873;28;20104;-78
2021/12/09 11:21:55;;;;;;;8.25;3.42;;;6.50;99.90;;;;;;5029078;28;20543;-78
2021/12/09 11:24:22;;;;;;;6.28;2.88;;;6.50;99.90;;;;;;5011820;28;20026;-78
2021/12/09 11:26:54;;;;;;;4.47;1.70;;;6.40;99.90;;;;;;5029743;28;20021;-78
2021/12/09 11:29:43;;;;;;;6.85;2.78;;;6.40;99.90;;;;;;5012994;28;20107;-78
2021/12/09 11:32:46;;;;;;;8.07;2.83;;;6.40;99.90;;;;;;5030384;28;20429;-78
2021/12/09 11:35:21;;;;;;;6.30;2.60;;;6.40;99.90;;;;;;5030636;28;20136;-78
2021/12/09 11:40:32;;;;;;;5.28;2.10;;;6.50;99.90;;;;;;5029498;28;20026;-78
2021/12/09 11:43:01;;;;;;;8.88;3.25;;;6.50;99.90;;;;;;5011383;28;20072;-78
2021/12/09 11:45:46;;;;;;;6.53;2.25;;;6.50;99.90;;;;;;5028696;28;20128;-78
2021/12/09 11:48:13;;;;;;;5.95;2.45;;;6.50;99.90;;;;;;5011182;28;20036;-78
2021/12/09 11:50:43;;;;;;;4.55;2.60;;;6.60;99.90;;;;;;5028997;28;20040;-78
2021/12/09 11:53:13;;;;;;;6.25;3.78;;;6.60;99.90;;;;;;5012015;28;20038;-78
2021/12/09 11:55:46;;;;;;;10.55;4.00;;;6.70;99.90;;;;;;5028293;28;20036;-78
2021/12/09 11:58:20;;;;;;;7.78;3.35;;;6.80;99.90;;;;;;5028659;28;20029;-78
2021/12/09 12:23:47;;;;;;;4.05;2.40;;;7.20;99.90;;;;;;5031069;28;20025;-78
2021/12/09 12:32:23;;;;;;;5.25;1.65;;;7.30;99.90;;;;;;5028148;28;20094;-78
2021/12/09 12:40:58;;;;;;;6.95;1.38;;;7.40;99.90;;;;;;5024900;28;20044;-78
2021/12/09 12:43:25;;;;;;;6.20;1.85;;;7.40;99.90;;;;;;5009639;28;20024;-78
2021/12/09 12:45:57;;;;;;;36.00;14.82;;;7.40;99.90;;;;;;5027928;28;20539;-78
2021/12/09 12:48:44;;;;;;;20.38;10.02;;;7.50;99.90;;;;;;5009955;28;20033;-78
2021/12/09 12:54:41;;;;;;;5.28;3.13;;;7.40;99.90;;;;;;5027719;28;20116;-78
2021/12/09 12:57:15;;;;;;;13.43;2.97;;;7.40;99.90;;;;;;5027971;28;20041;-78
2021/12/09 12:59:43;;;;;;;12.60;3.40;;;7.40;99.90;;;;;;5027729;28;20068;-78
2021/12/09 13:05:12;;;;;;;7.68;3.05;;;7.30;99.90;;;;;;5026224;28;20033;-78
2021/12/09 13:10:21;;;;;;;8.83;2.80;;;7.10;99.90;;;;;;5027386;28;20029;-78
2021/12/09 13:12:58;;;;;;;19.00;6.05;;;7.10;99.90;;;;;;5027201;28;20035;-78
2021/12/09 13:15:30;;;;;;;12.55;6.25;;;7.10;99.90;;;;;;5027624;28;20025;-78
2021/12/09 13:18:05;;;;;;;12.18;6.20;;;7.00;99.90;;;;;;5027552;28;20030;-78
2021/12/09 13:20:37;;;;;;;7.53;5.47;;;7.00;99.90;;;;;;5024748;28;20025;-78
2021/12/09 13:23:24;;;;;;;7.68;5.55;;;6.90;99.90;;;;;;5010515;28;20034;-78
2021/12/09 13:26:18;;;;;;;6.47;2.90;;;6.90;99.90;;;;;;5027582;28;20067;-78
2021/12/09 13:29:09;;;;;;;6.65;1.98;;;6.80;99.90;;;;;;5009174;28;20033;-78
2021/12/09 13:31:55;;;;;;;13.35;3.45;;;6.80;99.90;;;;;;5026728;28;20063;-78
2021/12/09 13:34:32;;;;;;;4.15;2.30;;;6.80;99.90;;;;;;5026787;28;20519;-78
2021/12/09 13:48:19;;;;;;;7.93;1.73;;;6.80;99.90;;;;;;5027583;28;20029;-78
2021/12/09 13:50:58;;;;;;;8.82;1.67;;;6.80;99.90;;;;;;5026934;28;20037;-78
2021/12/09 13:56:10;;;;;;;2.53;1.70;;;6.80;99.90;;;;;;5027020;28;20039;-78
2021/12/09 13:58:35;;;;;;;3.33;1.60;;;6.80;99.90;;;;;;5026335;28;20059;-78
2021/12/09 14:01:02;;;;;;;4.57;2.13;;;6.80;99.90;;;;;;5008273;28;20562;-78
2021/12/09 14:03:28;;;;;;;5.50;2.40;;;6.80;99.90;;;;;;5026011;28;20022;-78
2021/12/09 14:05:59;;;;;;;3.55;2.20;;;6.70;99.90;;;;;;5025972;28;20087;-78
2021/12/09 14:08:51;;;;;;;4.03;2.08;;;6.70;99.90;;;;;;5027513;28;20033;-78
2021/12/09 14:11:32;;;;;;;8.10;1.95;;;6.70;99.90;;;;;;5027744;28;20034;-78
2021/12/09 14:14:05;;;;;;;3.15;1.83;;;6.80;99.90;;;;;;5005822;28;20056;-78
2021/12/09 14:16:44;;;;;;;4.20;2.00;;;6.80;99.90;;;;;;5022429;28;20167;-78